Time,TemperatureF,DewpointF,PressureIn,WindDirection,WindDirectionDegrees,WindSpeedMPH,WindSpeedGustMPH,Humidity,HourlyPrecipIn,Conditions,Clouds,dailyrainin,SolarRadiationWatts/m^2,SoftwareType,DateUTC
2013-10-24 00:02:00,37.2,32.2,30.22,NW,314,1.0,4.0,82,0.00,,OVC047,0.00,0.00,VWS V14.01,2013-10-24 05:02:00,
2013-10-24 00:07:00,37.1,32.1,30.22,NW,318,2.0,9.0,82,0.00,,OVC047,0.00,0.00,VWS V14.01,2013-10-24 05:07:00,
2013-10-24 00:12:00,37.1,32.1,30.23,NNW,328,1.0,4.0,82,0.00,,OVC047,0.00,0.00,VWS V14.01,2013-10-24 05:12:00,
2013-10-24 00:17:00,37.0,31.7,30.23,NW,307,2.0,6.0,81,0.00,,OVC047,0.00,0.00,VWS V14.01,2013-10-24 05:17:00,
2013-10-24 00:22:00,37.0,31.7,30.23,NW,318,2.0,3.0,81,0.00,,OVC047,0.00,0.00,VWS V14.01,2013-10-24 05:22:00,
2013-10-24 00:27:00,36.9,31.6,30.23,NNW,327,4.0,4.0,81,0.00,,OVC047,0.00,0.00,VWS V14.01,2013-10-24 05:27:00,
2013-10-24 00:32:00,36.8,31.2,30.23,NW,324,1.0,3.0,80,0.00,,OVC047,0.00,0.00,VWS V14.01,2013-10-24 05:32:00,
2013-10-24 00:37:00,36.8,31.2,30.23,NW,311,3.0,4.0,80,0.00,,OVC047,0.00,0.00,VWS V14.01,2013-10-24 05:37:00,
2013-10-24 00:42:00,36.7,31.1,30.23,WNW,300,0.0,5.0,80,0.00,,OVC047,0.00,0.00,VWS V14.01,2013-10-24 05:42:00,
2013-10-24 00:47:00,36.7,31.1,30.23,WNW,300,5.0,5.0,80,0.00,,OVC047,0.00,0.00,VWS V14.01,2013-10-24 05:47:00,
2013-10-24 00:52:00,36.6,31.0,30.23,WNW,299,4.0,5.0,80,0.00,,OVC049,0.00,0.00,VWS V14.01,2013-10-24 05:52:00,
2013-10-24 00:57:00,36.6,31.0,30.23,NW,323,2.0,6.0,80,0.00,,OVC049,0.00,0.00,VWS V14.01,2013-10-24 05:57:00,
2013-10-24 01:02:00,36.5,30.9,30.23,NW,315,5.0,6.0,80,0.00,,OVC049,0.00,0.00,VWS V14.01,2013-10-24 06:02:00,
2013-10-24 01:07:00,36.5,30.6,30.23,NW,313,0.0,4.0,79,0.00,,OVC049,0.00,0.00,VWS V14.01,2013-10-24 06:07:00,
2013-10-24 01:12:00,36.4,30.5,30.23,NW,326,1.0,4.0,79,0.00,,OVC049,0.00,0.00,VWS V14.01,2013-10-24 06:12:00,
2013-10-24 01:17:00,36.4,30.5,30.23,WNW,303,2.0,2.0,79,0.00,,OVC049,0.00,0.00,VWS V14.01,2013-10-24 06:17:00,
2013-10-24 01:22:00,36.3,30.4,30.23,WNW,301,0.0,4.0,79,0.00,,OVC049,0.00,0.00,VWS V14.01,2013-10-24 06:22:00,
2013-10-24 01:27:00,36.3,30.1,30.23,WNW,303,0.0,5.0,78,0.00,,OVC049,0.00,0.00,VWS V14.01,2013-10-24 06:27:00,
2013-10-24 01:32:00,36.2,30.0,30.23,WNW,295,2.0,3.0,78,0.00,,OVC049,0.00,0.00,VWS V14.01,2013-10-24 06:32:00,
2013-10-24 01:38:00,36.2,30.0,30.23,NW,320,2.0,6.0,78,0.00,,OVC049,0.00,0.00,VWS V14.01,2013-10-24 06:38:00,
2013-10-24 01:43:00,36.1,29.9,30.23,WNW,285,3.0,5.0,78,0.00,,OVC049,0.00,0.00,VWS V14.01,2013-10-24 06:43:00,
2013-10-24 01:48:00,36.1,29.9,30.24,NW,314,3.0,10.0,78,0.00,,OVC049,0.00,0.00,VWS V14.01,2013-10-24 06:48:00,
2013-10-24 01:53:00,36.0,29.8,30.24,NW,309,2.0,4.0,78,0.00,,OVC055,0.00,0.00,VWS V14.01,2013-10-24 06:53:00,
2013-10-24 01:58:00,36.0,29.5,30.24,NW,306,3.0,5.0,77,0.00,,OVC055,0.00,0.00,VWS V14.01,2013-10-24 06:58:00,
2013-10-24 02:03:00,35.9,29.4,30.24,West,273,4.0,6.0,77,0.00,,OVC055,0.00,0.00,VWS V14.01,2013-10-24 07:03:00,
2013-10-24 02:08:00,35.8,29.0,30.24,NW,314,3.0,6.0,76,0.00,,OVC055,0.00,0.00,VWS V14.01,2013-10-24 07:08:00,
2013-10-24 02:13:00,35.7,28.9,30.24,WNW,300,1.0,4.0,76,0.00,,OVC055,0.00,0.00,VWS V14.01,2013-10-24 07:13:00,
2013-10-24 02:18:00,35.6,28.5,30.24,WNW,293,2.0,4.0,75,0.00,,OVC055,0.00,0.00,VWS V14.01,2013-10-24 07:18:00,
2013-10-24 02:23:00,35.5,28.4,30.24,WNW,292,0.0,2.0,75,0.00,,OVC055,0.00,0.00,VWS V14.01,2013-10-24 07:23:00,
2013-10-24 02:28:00,35.3,28.2,30.24,WNW,289,2.0,3.0,75,0.00,,OVC055,0.00,0.00,VWS V14.01,2013-10-24 07:28:00,
2013-10-24 02:33:00,35.2,28.1,30.24,WNW,282,0.0,3.0,75,0.00,,OVC055,0.00,0.00,VWS V14.01,2013-10-24 07:33:00,
2013-10-24 02:38:00,35.0,27.9,30.24,WNW,282,3.0,3.0,75,0.00,,OVC055,0.00,0.00,VWS V14.01,2013-10-24 07:38:00,
2013-10-24 02:43:00,34.7,27.3,30.24,WNW,283,0.0,4.0,74,0.00,,OVC055,0.00,0.00,VWS V14.01,2013-10-24 07:43:00,
2013-10-24 02:48:00,34.4,27.0,30.25,WNW,286,0.0,3.0,74,0.00,,OVC055,0.00,0.00,VWS V14.01,2013-10-24 07:48:00,
2013-10-24 02:53:00,34.4,27.0,30.25,WNW,287,1.0,2.0,74,0.00,,SCT060,0.00,0.00,VWS V14.01,2013-10-24 07:53:00,
2013-10-24 02:58:00,34.2,26.8,30.25,WNW,290,0.0,5.0,74,0.00,,SCT060,0.00,0.00,VWS V14.01,2013-10-24 07:58:00,
2013-10-24 03:03:00,34.0,26.6,30.25,WNW,290,0.0,3.0,74,0.00,,SCT060,0.00,0.00,VWS V14.01,2013-10-24 08:03:00,
2013-10-24 03:08:00,33.8,26.7,30.25,WNW,287,4.0,4.0,75,0.00,,SCT060,0.00,0.00,VWS V14.01,2013-10-24 08:08:00,
2013-10-24 03:13:00,33.6,26.5,30.25,West,279,1.0,1.0,75,0.00,,SCT060,0.00,0.00,VWS V14.01,2013-10-24 08:13:00,
2013-10-24 03:18:00,33.4,26.3,30.25,WNW,289,0.0,5.0,75,0.00,,SCT060,0.00,0.00,VWS V14.01,2013-10-24 08:18:00,
2013-10-24 03:23:00,33.3,26.6,30.25,WNW,289,0.0,4.0,76,0.00,,SCT060,0.00,0.00,VWS V14.01,2013-10-24 08:23:00,
2013-10-24 03:28:00,33.2,26.5,30.25,WNW,289,0.0,4.0,76,0.00,,SCT060,0.00,0.00,VWS V14.01,2013-10-24 08:28:00,
2013-10-24 03:33:00,33.1,26.7,30.25,WNW,289,2.0,3.0,77,0.00,,SCT060,0.00,0.00,VWS V14.01,2013-10-24 08:33:00,
2013-10-24 03:38:00,33.1,26.7,30.25,West,272,1.0,4.0,77,0.00,,SCT060,0.00,0.00,VWS V14.01,2013-10-24 08:38:00,
2013-10-24 03:43:00,33.1,27.0,30.25,NNW,334,2.0,6.0,78,0.00,,SCT060,0.00,0.00,VWS V14.01,2013-10-24 08:43:00,
2013-10-24 03:48:00,33.2,27.1,30.25,West,267,4.0,4.0,78,0.00,,SCT060,0.00,0.00,VWS V14.01,2013-10-24 08:48:00,
2013-10-24 03:53:00,33.3,27.2,30.25,NW,314,5.0,6.0,78,0.00,,BKN070,0.00,0.00,VWS V14.01,2013-10-24 08:53:00,
2013-10-24 03:58:00,33.4,27.6,30.25,West,266,3.0,8.0,79,0.00,,BKN070,0.00,0.00,VWS V14.01,2013-10-24 08:58:00,
2013-10-24 04:03:00,33.5,27.7,30.25,North,360,0.0,7.0,79,0.00,,BKN070,0.00,0.00,VWS V14.01,2013-10-24 09:03:00,
2013-10-24 04:08:00,33.7,27.9,30.25,NW,318,0.0,4.0,79,0.00,,BKN070,0.00,0.00,VWS V14.01,2013-10-24 09:08:00,
2013-10-24 04:13:00,33.8,28.0,30.25,West,281,1.0,4.0,79,0.00,,BKN070,0.00,0.00,VWS V14.01,2013-10-24 09:13:00,
2013-10-24 04:18:00,33.9,28.1,30.25,NW,314,2.0,13.0,79,0.00,,BKN070,0.00,0.00,VWS V14.01,2013-10-24 09:18:00,
2013-10-24 04:23:00,34.0,28.2,30.26,WNW,301,1.0,9.0,79,0.00,,BKN070,0.00,0.00,VWS V14.01,2013-10-24 09:23:00,
2013-10-24 04:28:00,34.1,28.0,30.26,NW,317,5.0,7.0,78,0.00,,BKN070,0.00,0.00,VWS V14.01,2013-10-24 09:28:00,
2013-10-24 04:33:00,34.2,28.1,30.26,NW,316,10.0,10.0,78,0.00,,BKN070,0.00,0.00,VWS V14.01,2013-10-24 09:33:00,
2013-10-24 04:38:00,34.2,28.1,30.26,NW,316,6.0,7.0,78,0.00,,BKN070,0.00,0.00,VWS V14.01,2013-10-24 09:38:00,
2013-10-24 04:43:00,34.2,28.1,30.26,WNW,299,1.0,4.0,78,0.00,,BKN070,0.00,0.00,VWS V14.01,2013-10-24 09:43:00,
2013-10-24 04:48:00,34.1,28.0,30.27,WSW,254,1.0,6.0,78,0.00,,BKN070,0.00,0.00,VWS V14.01,2013-10-24 09:48:00,
2013-10-24 04:53:00,34.1,28.0,30.26,WNW,295,6.0,6.0,78,0.00,,BKN070,0.00,0.00,VWS V14.01,2013-10-24 09:53:00,
2013-10-24 04:58:00,33.9,27.8,30.27,NW,323,4.0,7.0,78,0.00,,BKN070,0.00,0.00,VWS V14.01,2013-10-24 09:58:00,
2013-10-24 05:03:00,33.8,27.7,30.27,WNW,293,4.0,6.0,78,0.00,,BKN070,0.00,0.00,VWS V14.01,2013-10-24 10:03:00,
2013-10-24 05:08:00,33.7,27.6,30.27,West,268,4.0,7.0,78,0.00,,BKN070,0.00,0.00,VWS V14.01,2013-10-24 10:08:00,
2013-10-24 05:13:00,33.6,27.5,30.27,NNW,336,1.0,5.0,78,0.00,,BKN070,0.00,0.00,VWS V14.01,2013-10-24 10:13:00,
2013-10-24 05:18:00,33.5,27.4,30.28,WNW,284,3.0,7.0,78,0.00,,BKN070,0.00,0.00,VWS V14.01,2013-10-24 10:18:00,
2013-10-24 05:23:00,33.4,27.3,30.28,NW,318,5.0,7.0,78,0.00,,BKN070,0.00,0.00,VWS V14.01,2013-10-24 10:23:00,
2013-10-24 05:28:00,33.3,27.2,30.28,West,278,4.0,10.0,78,0.00,,BKN070,0.00,0.00,VWS V14.01,2013-10-24 10:28:00,
2013-10-24 05:33:00,33.2,27.4,30.28,NW,324,6.0,7.0,79,0.00,,BKN070,0.00,0.00,VWS V14.01,2013-10-24 10:33:00,
2013-10-24 05:38:00,33.1,27.3,30.29,North,5,0.0,11.0,79,0.00,,BKN070,0.00,0.00,VWS V14.01,2013-10-24 10:38:00,
2013-10-24 05:43:00,33.1,27.3,30.29,NNW,327,2.0,9.0,79,0.00,,BKN070,0.00,0.00,VWS V14.01,2013-10-24 10:43:00,
2013-10-24 05:48:00,33.0,27.2,30.29,NW,305,2.0,9.0,79,0.00,,BKN070,0.00,0.00,VWS V14.01,2013-10-24 10:48:00,
2013-10-24 05:53:00,33.0,27.5,30.29,NW,316,6.0,9.0,80,0.00,,CLR,0.00,0.00,VWS V14.01,2013-10-24 10:53:00,
2013-10-24 05:58:00,32.9,27.4,30.29,NW,320,3.0,8.0,80,0.00,,CLR,0.00,0.00,VWS V14.01,2013-10-24 10:58:00,
2013-10-24 06:03:00,32.9,27.4,30.29,NW,320,12.0,12.0,80,0.00,,CLR,0.00,0.00,VWS V14.01,2013-10-24 11:03:00,
2013-10-24 06:08:00,32.8,27.3,30.29,NNW,332,6.0,6.0,80,0.00,,CLR,0.00,0.00,VWS V14.01,2013-10-24 11:08:00,
2013-10-24 06:13:00,32.8,27.6,30.29,NNW,342,7.0,10.0,81,0.00,,CLR,0.00,0.00,VWS V14.01,2013-10-24 11:13:00,
2013-10-24 06:18:00,32.8,27.6,30.30,NW,312,3.0,9.0,81,0.00,,CLR,0.00,0.00,VWS V14.01,2013-10-24 11:18:00,
2013-10-24 06:23:00,32.7,27.5,30.30,NNW,344,4.0,7.0,81,0.00,,CLR,0.00,0.00,VWS V14.01,2013-10-24 11:23:00,
2013-10-24 06:28:00,32.6,27.4,30.30,West,269,9.0,9.0,81,0.00,,CLR,0.00,0.00,VWS V14.01,2013-10-24 11:28:00,
2013-10-24 06:33:00,32.6,27.4,30.30,NNW,343,4.0,5.0,81,0.00,,CLR,0.00,0.00,VWS V14.01,2013-10-24 11:33:00,
2013-10-24 06:38:00,32.5,27.3,30.30,NNW,335,3.0,9.0,81,0.00,,CLR,0.00,0.00,VWS V14.01,2013-10-24 11:38:00,
2013-10-24 06:43:00,32.4,27.2,30.30,NNW,329,4.0,10.0,81,0.00,,CLR,0.00,0.00,VWS V14.01,2013-10-24 11:43:00,
2013-10-24 06:48:00,32.4,27.5,30.31,NW,326,2.0,7.0,82,0.00,,CLR,0.00,0.00,VWS V14.01,2013-10-24 11:48:00,
2013-10-24 06:53:00,32.3,27.1,30.31,NNW,330,3.0,4.0,81,0.00,,CLR,0.00,0.00,VWS V14.01,2013-10-24 11:53:00,
2013-10-24 06:58:00,32.2,27.3,30.31,NNW,328,2.0,7.0,82,0.00,,CLR,0.00,0.00,VWS V14.01,2013-10-24 11:58:00,
2013-10-24 07:03:00,32.1,27.2,30.31,NNW,330,0.0,2.0,82,0.00,,CLR,0.00,0.00,VWS V14.01,2013-10-24 12:03:00,
2013-10-24 07:08:00,32.0,27.1,30.31,NW,323,2.0,6.0,82,0.00,,CLR,0.00,0.00,VWS V14.01,2013-10-24 12:08:00,
2013-10-24 07:13:00,31.8,26.9,30.32,NW,311,5.0,6.0,82,0.00,,CLR,0.00,0.00,VWS V14.01,2013-10-24 12:13:00,
2013-10-24 07:18:00,31.7,26.8,30.32,NW,320,2.0,5.0,82,0.00,,CLR,0.00,0.00,VWS V14.01,2013-10-24 12:18:00,
2013-10-24 07:23:00,31.5,26.6,30.32,West,272,3.0,9.0,82,0.00,,CLR,0.00,0.00,VWS V14.01,2013-10-24 12:23:00,
2013-10-24 07:28:00,31.4,26.5,30.32,WNW,293,0.0,5.0,82,0.00,,CLR,0.00,0.00,VWS V14.01,2013-10-24 12:28:00,
2013-10-24 07:33:00,31.2,26.6,30.32,NNW,334,3.0,9.0,83,0.00,,CLR,0.00,0.00,VWS V14.01,2013-10-24 12:33:00,
2013-10-24 07:38:00,31.1,26.5,30.32,NNW,329,5.0,10.0,83,0.00,,CLR,0.00,5.00,VWS V14.01,2013-10-24 12:38:00,
2013-10-24 07:43:00,31.0,26.5,30.33,West,280,6.0,9.0,83,0.00,,CLR,0.00,9.00,VWS V14.01,2013-10-24 12:43:00,
2013-10-24 07:48:00,30.9,26.4,30.33,NNW,328,4.0,5.0,83,0.00,,CLR,0.00,12.00,VWS V14.01,2013-10-24 12:48:00,
2013-10-24 07:53:00,30.8,26.3,30.33,NNW,345,5.0,11.0,83,0.00,,CLR,0.00,16.00,VWS V14.01,2013-10-24 12:53:00,
2013-10-24 07:58:00,30.8,26.0,30.34,North,349,3.0,12.0,82,0.00,,CLR,0.00,19.00,VWS V14.01,2013-10-24 12:58:00,
2013-10-24 08:03:00,30.7,25.9,30.34,WNW,285,6.0,10.0,82,0.00,,CLR,0.00,21.00,VWS V14.01,2013-10-24 13:03:00,
2013-10-24 08:08:00,30.8,25.7,30.34,NNW,347,5.0,7.0,81,0.00,,CLR,0.00,25.00,VWS V14.01,2013-10-24 13:08:00,
2013-10-24 08:14:00,31.0,25.6,30.34,NNW,327,2.0,10.0,80,0.00,,CLR,0.00,39.00,VWS V14.01,2013-10-24 13:14:00,
2013-10-24 08:19:00,31.3,25.2,30.35,NNE,18,4.0,7.0,78,0.00,,CLR,0.00,77.00,VWS V14.01,2013-10-24 13:19:00,
2013-10-24 08:24:00,32.0,25.0,30.35,NNW,337,5.0,10.0,75,0.00,,CLR,0.00,93.00,VWS V14.01,2013-10-24 13:24:00,
2013-10-24 08:29:00,32.3,24.6,30.35,NW,308,9.0,10.0,73,0.00,,CLR,0.00,109.00,VWS V14.01,2013-10-24 13:29:00,
2013-10-24 08:34:00,32.6,24.6,30.35,NNW,345,1.0,7.0,72,0.00,,CLR,0.00,127.00,VWS V14.01,2013-10-24 13:34:00,
2013-10-24 08:39:00,32.9,24.5,30.36,North,10,4.0,10.0,71,0.00,,CLR,0.00,139.00,VWS V14.01,2013-10-24 13:39:00,
2013-10-24 08:44:00,33.1,24.7,30.36,North,353,2.0,11.0,71,0.00,,CLR,0.00,158.00,VWS V14.01,2013-10-24 13:44:00,
2013-10-24 08:49:00,33.3,24.6,30.36,North,10,6.0,12.0,70,0.00,,CLR,0.00,174.00,VWS V14.01,2013-10-24 13:49:00,
2013-10-24 08:54:00,33.5,24.4,30.37,North,360,7.0,16.0,69,0.00,,CLR,0.00,174.00,VWS V14.01,2013-10-24 13:54:00,
2013-10-24 08:59:00,33.8,24.4,30.37,NNW,335,6.0,10.0,68,0.00,,CLR,0.00,178.00,VWS V14.01,2013-10-24 13:59:00,
2013-10-24 09:04:00,33.9,24.8,30.37,North,353,9.0,14.0,69,0.00,,CLR,0.00,195.00,VWS V14.01,2013-10-24 14:04:00,
2013-10-24 09:09:00,34.3,25.2,30.37,North,10,4.0,6.0,69,0.00,,CLR,0.00,209.00,VWS V14.01,2013-10-24 14:09:00,
2013-10-24 09:14:00,34.4,25.0,30.37,North,350,4.0,12.0,68,0.00,,CLR,0.00,236.00,VWS V14.01,2013-10-24 14:14:00,
2013-10-24 09:19:00,34.7,25.2,30.38,North,349,3.0,13.0,68,0.00,,CLR,0.00,251.00,VWS V14.01,2013-10-24 14:19:00,
2013-10-24 09:24:00,35.2,25.4,30.38,North,354,12.0,14.0,67,0.00,,CLR,0.00,262.00,VWS V14.01,2013-10-24 14:24:00,
2013-10-24 09:29:00,35.3,25.5,30.38,NNE,26,12.0,12.0,67,0.00,,CLR,0.00,279.00,VWS V14.01,2013-10-24 14:29:00,
2013-10-24 09:34:00,35.7,25.8,30.38,NNW,334,12.0,14.0,67,0.00,,CLR,0.00,304.00,VWS V14.01,2013-10-24 14:34:00,
2013-10-24 09:39:00,35.9,25.7,30.38,NNW,348,11.0,16.0,66,0.00,,CLR,0.00,329.00,VWS V14.01,2013-10-24 14:39:00,
2013-10-24 09:44:00,36.0,25.8,30.38,North,351,9.0,14.0,66,0.00,,CLR,0.00,350.00,VWS V14.01,2013-10-24 14:44:00,
2013-10-24 09:49:00,36.5,26.2,30.38,North,10,4.0,13.0,66,0.00,,CLR,0.00,367.00,VWS V14.01,2013-10-24 14:49:00,
2013-10-24 09:54:00,36.7,25.7,30.39,NNE,16,4.0,11.0,64,0.00,,CLR,0.00,394.00,VWS V14.01,2013-10-24 14:54:00,
2013-10-24 09:59:00,37.3,27.0,30.39,NW,322,9.0,13.0,66,0.00,,CLR,0.00,415.00,VWS V14.01,2013-10-24 14:59:00,
2013-10-24 10:04:00,37.7,26.6,30.39,SSE,163,4.0,14.0,64,0.00,,CLR,0.00,429.00,VWS V14.01,2013-10-24 15:04:00,
2013-10-24 10:09:00,37.5,26.1,30.39,NNW,347,10.0,14.0,63,0.00,,CLR,0.00,439.00,VWS V14.01,2013-10-24 15:09:00,
2013-10-24 10:14:00,37.5,26.1,30.39,NNE,14,13.0,14.0,63,0.00,,CLR,0.00,452.00,VWS V14.01,2013-10-24 15:14:00,
2013-10-24 10:19:00,37.9,26.1,30.39,North,5,10.0,14.0,62,0.00,,CLR,0.00,462.00,VWS V14.01,2013-10-24 15:19:00,
2013-10-24 10:24:00,38.2,26.7,30.40,North,5,6.0,11.0,63,0.00,,CLR,0.00,473.00,VWS V14.01,2013-10-24 15:24:00,
2013-10-24 10:29:00,38.8,27.3,30.39,North,5,4.0,13.0,63,0.00,,CLR,0.00,478.00,VWS V14.01,2013-10-24 15:29:00,
2013-10-24 10:34:00,39.0,26.7,30.40,North,10,13.0,15.0,61,0.00,,CLR,0.00,482.00,VWS V14.01,2013-10-24 15:34:00,
2013-10-24 10:39:00,38.9,26.2,30.40,NNE,14,10.0,14.0,60,0.00,,CLR,0.00,487.00,VWS V14.01,2013-10-24 15:39:00,
2013-10-24 10:44:00,39.2,26.9,30.40,NNW,347,12.0,16.0,61,0.00,,CLR,0.00,489.00,VWS V14.01,2013-10-24 15:44:00,
2013-10-24 10:49:00,39.5,26.4,30.40,WNW,301,6.0,10.0,59,0.00,,CLR,0.00,489.00,VWS V14.01,2013-10-24 15:49:00,
2013-10-24 10:54:00,39.3,26.2,30.40,North,360,7.0,12.0,59,0.00,,CLR,0.00,499.00,VWS V14.01,2013-10-24 15:54:00,
2013-10-24 10:59:00,40.5,28.5,30.41,North,360,4.0,10.0,62,0.00,,CLR,0.00,483.00,VWS V14.01,2013-10-24 15:59:00,
2013-10-24 11:04:00,41.0,27.8,30.41,North,360,7.0,11.0,59,0.00,,CLR,0.00,483.00,VWS V14.01,2013-10-24 16:04:00,
2013-10-24 11:09:00,41.1,27.9,30.41,North,360,10.0,13.0,59,0.00,,CLR,0.00,476.00,VWS V14.01,2013-10-24 16:09:00,
2013-10-24 11:14:00,40.4,26.0,30.41,NNW,328,2.0,10.0,56,0.00,,CLR,0.00,476.00,VWS V14.01,2013-10-24 16:14:00,
2013-10-24 11:19:00,40.7,27.1,30.41,North,10,10.0,10.0,58,0.00,,CLR,0.00,482.00,VWS V14.01,2013-10-24 16:19:00,
2013-10-24 11:24:00,41.3,28.1,30.41,NNE,19,5.0,6.0,59,0.00,,CLR,0.00,520.00,VWS V14.01,2013-10-24 16:24:00,
2013-10-24 11:29:00,41.5,28.3,30.41,NE,35,3.0,13.0,59,0.00,,CLR,0.00,517.00,VWS V14.01,2013-10-24 16:29:00,
2013-10-24 11:34:00,42.2,28.9,30.41,ENE,64,11.0,16.0,59,0.00,,CLR,0.00,541.00,VWS V14.01,2013-10-24 16:34:00,
2013-10-24 11:39:00,42.4,28.3,30.41,NE,41,5.0,11.0,57,0.00,,CLR,0.00,561.00,VWS V14.01,2013-10-24 16:39:00,
2013-10-24 11:44:00,42.4,27.4,30.41,North,360,4.0,13.0,55,0.00,,CLR,0.00,587.00,VWS V14.01,2013-10-24 16:44:00,
2013-10-24 11:49:00,41.9,26.9,30.41,North,353,4.0,11.0,55,0.00,,CLR,0.00,610.00,VWS V14.01,2013-10-24 16:49:00,
2013-10-24 11:54:00,42.4,27.4,30.41,NW,314,4.0,12.0,55,0.00,,SCT039,0.00,629.00,VWS V14.01,2013-10-24 16:54:00,
2013-10-24 11:59:00,42.1,27.1,30.41,NW,316,9.0,13.0,55,0.00,,SCT039,0.00,587.00,VWS V14.01,2013-10-24 16:59:00,
2013-10-24 12:04:00,42.7,27.2,30.42,NW,311,9.0,12.0,54,0.00,,SCT039,0.00,592.00,VWS V14.01,2013-10-24 17:04:00,
2013-10-24 12:09:00,43.0,28.0,30.41,North,5,11.0,13.0,55,0.00,,SCT039,0.00,649.00,VWS V14.01,2013-10-24 17:09:00,
2013-10-24 12:14:00,43.3,27.3,30.41,NNE,29,5.0,15.0,53,0.00,,SCT039,0.00,664.00,VWS V14.01,2013-10-24 17:14:00,
2013-10-24 12:19:00,44.6,29.9,30.41,WNW,296,4.0,13.0,56,0.00,,SCT039,0.00,791.00,VWS V14.01,2013-10-24 17:19:00,
2013-10-24 12:24:00,43.1,28.0,30.41,NNW,329,4.0,8.0,55,0.00,,SCT039,0.00,244.00,VWS V14.01,2013-10-24 17:24:00,
2013-10-24 12:29:00,42.3,27.7,30.42,North,356,7.0,15.0,56,0.00,,SCT039,0.00,325.00,VWS V14.01,2013-10-24 17:29:00,
2013-10-24 12:34:00,43.6,29.0,30.41,NNE,18,8.0,12.0,56,0.00,,SCT039,0.00,239.00,VWS V14.01,2013-10-24 17:34:00,
2013-10-24 12:39:00,42.6,28.5,30.41,NNW,328,4.0,9.0,57,0.00,,SCT039,0.00,397.00,VWS V14.01,2013-10-24 17:39:00,
2013-10-24 12:44:00,42.5,27.9,30.41,NNE,27,7.0,11.0,56,0.00,,SCT039,0.00,229.00,VWS V14.01,2013-10-24 17:44:00,
2013-10-24 12:49:00,42.2,28.1,30.41,North,360,1.0,5.0,57,0.00,,SCT039,0.00,287.00,VWS V14.01,2013-10-24 17:49:00,
2013-10-24 12:54:00,42.6,27.6,30.41,NNW,332,9.0,10.0,55,0.00,,SCT047,0.00,258.00,VWS V14.01,2013-10-24 17:54:00,
2013-10-24 12:59:00,42.2,28.1,30.41,NW,314,6.0,8.0,57,0.00,,SCT047,0.00,227.00,VWS V14.01,2013-10-24 17:59:00,
2013-10-24 13:04:00,43.1,29.3,30.41,WNW,291,2.0,12.0,58,0.00,,SCT047,0.00,278.00,VWS V14.01,2013-10-24 18:04:00,
2013-10-24 13:09:00,42.8,28.6,30.41,WNW,303,7.0,14.0,57,0.00,,SCT047,0.00,260.00,VWS V14.01,2013-10-24 18:09:00,
2013-10-24 13:14:00,42.2,28.1,30.41,North,356,5.0,11.0,57,0.00,,SCT047,0.00,255.00,VWS V14.01,2013-10-24 18:14:00,
2013-10-24 13:19:00,43.2,29.9,30.41,WSW,243,4.0,12.0,59,0.00,,SCT047,0.00,339.00,VWS V14.01,2013-10-24 18:19:00,
2013-10-24 13:24:00,43.2,29.4,30.40,North,360,7.0,11.0,58,0.00,,SCT047,0.00,255.00,VWS V14.01,2013-10-24 18:24:00,
2013-10-24 13:29:00,42.7,29.0,30.41,NNW,347,4.0,15.0,58,0.00,,SCT047,0.00,220.00,VWS V14.01,2013-10-24 18:29:00,
2013-10-24 13:35:00,43.0,28.8,30.41,WNW,284,4.0,10.0,57,0.00,,SCT047,0.00,218.00,VWS V14.01,2013-10-24 18:35:00,
2013-10-24 13:40:00,42.6,28.5,30.40,NW,315,9.0,13.0,57,0.00,,SCT047,0.00,257.00,VWS V14.01,2013-10-24 18:40:00,
2013-10-24 13:45:00,43.4,30.9,30.40,North,355,0.0,4.0,61,0.00,,SCT047,0.00,199.00,VWS V14.01,2013-10-24 18:45:00,
2013-10-24 13:50:00,43.0,28.8,30.40,NW,322,10.0,13.0,57,0.00,,SCT047,0.00,185.00,VWS V14.01,2013-10-24 18:50:00,
2013-10-24 13:55:00,42.8,29.1,30.40,WNW,300,10.0,12.0,58,0.00,,BKN050,0.00,221.00,VWS V14.01,2013-10-24 18:55:00,
2013-10-24 14:00:00,42.8,29.5,30.40,NW,320,3.0,7.0,59,0.00,,BKN050,0.00,211.00,VWS V14.01,2013-10-24 19:00:00,
2013-10-24 14:05:00,42.9,29.6,30.40,North,360,2.0,5.0,59,0.00,,BKN050,0.00,193.00,VWS V14.01,2013-10-24 19:05:00,
2013-10-24 14:10:00,42.8,29.5,30.40,NW,314,9.0,12.0,59,0.00,,BKN050,0.00,160.00,VWS V14.01,2013-10-24 19:10:00,
2013-10-24 14:15:00,42.7,29.4,30.40,WNW,299,8.0,10.0,59,0.00,,BKN050,0.00,128.00,VWS V14.01,2013-10-24 19:15:00,
2013-10-24 14:20:00,42.5,29.6,30.40,WNW,299,4.0,10.0,60,0.00,,BKN050,0.00,121.00,VWS V14.01,2013-10-24 19:20:00,
2013-10-24 14:25:00,42.6,30.1,30.40,North,349,5.0,5.0,61,0.00,,BKN050,0.00,160.00,VWS V14.01,2013-10-24 19:25:00,
2013-10-24 14:30:00,42.6,30.1,30.40,WNW,286,7.0,15.0,61,0.00,,BKN050,0.00,169.00,VWS V14.01,2013-10-24 19:30:00,
2013-10-24 14:35:00,42.7,29.8,30.40,NW,320,6.0,12.0,60,0.00,,BKN050,0.00,156.00,VWS V14.01,2013-10-24 19:35:00,
2013-10-24 14:40:00,42.8,30.3,30.40,NW,318,5.0,11.0,61,0.00,,BKN050,0.00,105.00,VWS V14.01,2013-10-24 19:40:00,
2013-10-24 14:45:00,42.9,30.0,30.40,North,360,0.0,9.0,60,0.00,,BKN050,0.00,213.00,VWS V14.01,2013-10-24 19:45:00,
2013-10-24 14:50:00,43.3,30.0,30.40,NW,307,3.0,8.0,59,0.00,,BKN060,0.00,232.00,VWS V14.01,2013-10-24 19:50:00,
2013-10-24 14:55:00,43.6,30.2,30.40,NW,317,5.0,16.0,59,0.00,,BKN060,0.00,197.00,VWS V14.01,2013-10-24 19:55:00,
2013-10-24 15:00:00,43.8,31.2,30.40,WNW,297,4.0,7.0,61,0.00,,BKN060,0.00,192.00,VWS V14.01,2013-10-24 20:00:00,
2013-10-24 15:05:00,43.9,30.5,30.40,NW,311,5.0,9.0,59,0.00,,BKN060,0.00,163.00,VWS V14.01,2013-10-24 20:05:00,
2013-10-24 15:10:00,43.7,29.9,30.40,NW,323,7.0,10.0,58,0.00,,BKN060,0.00,163.00,VWS V14.01,2013-10-24 20:10:00,
2013-10-24 15:15:00,43.7,29.9,30.40,NW,326,5.0,14.0,58,0.00,,BKN060,0.00,142.00,VWS V14.01,2013-10-24 20:15:00,
2013-10-24 15:20:00,43.6,29.8,30.40,NW,314,4.0,12.0,58,0.00,,BKN060,0.00,116.00,VWS V14.01,2013-10-24 20:20:00,
2013-10-24 15:25:00,43.5,30.1,30.40,WNW,284,4.0,6.0,59,0.00,,BKN060,0.00,109.00,VWS V14.01,2013-10-24 20:25:00,
2013-10-24 15:30:00,43.5,30.5,30.40,WNW,295,0.0,4.0,60,0.00,,BKN060,0.00,113.00,VWS V14.01,2013-10-24 20:30:00,
2013-10-24 15:35:00,43.5,30.1,30.40,WNW,287,4.0,11.0,59,0.00,,BKN060,0.00,118.00,VWS V14.01,2013-10-24 20:35:00,
2013-10-24 15:40:00,43.5,30.1,30.40,NW,324,4.0,4.0,59,0.00,,BKN060,0.00,114.00,VWS V14.01,2013-10-24 20:40:00,
2013-10-24 15:45:00,43.5,30.1,30.40,NNW,332,4.0,6.0,59,0.00,,BKN060,0.00,109.00,VWS V14.01,2013-10-24 20:45:00,
2013-10-24 15:50:00,43.6,30.6,30.40,NNW,333,5.0,8.0,60,0.00,,BKN055,0.00,121.00,VWS V14.01,2013-10-24 20:50:00,
2013-10-24 15:55:00,43.8,30.4,30.40,NNW,328,4.0,6.0,59,0.00,,BKN055,0.00,98.00,VWS V14.01,2013-10-24 20:55:00,
2013-10-24 16:00:00,43.7,30.7,30.40,NW,319,3.0,5.0,60,0.00,,BKN055,0.00,100.00,VWS V14.01,2013-10-24 21:00:00,
2013-10-24 16:05:00,43.8,30.4,30.40,NNE,16,3.0,10.0,59,0.00,,BKN055,0.00,95.00,VWS V14.01,2013-10-24 21:05:00,
2013-10-24 16:10:00,43.7,30.3,30.40,NW,326,10.0,10.0,59,0.00,,BKN055,0.00,105.00,VWS V14.01,2013-10-24 21:10:00,
2013-10-24 16:15:00,43.8,30.4,30.40,NW,324,1.0,5.0,59,0.00,,BKN055,0.00,105.00,VWS V14.01,2013-10-24 21:15:00,
2013-10-24 16:20:00,43.8,30.4,30.40,NW,322,1.0,7.0,59,0.00,,BKN055,0.00,111.00,VWS V14.01,2013-10-24 21:20:00,
2013-10-24 16:25:00,43.9,30.9,30.40,NNW,341,2.0,2.0,60,0.00,,BKN055,0.00,125.00,VWS V14.01,2013-10-24 21:25:00,
2013-10-24 16:30:00,44.1,31.1,30.40,WNW,282,2.0,5.0,60,0.00,,BKN055,0.00,90.00,VWS V14.01,2013-10-24 21:30:00,
2013-10-24 16:35:00,44.0,31.0,30.40,NW,308,2.0,2.0,60,0.00,,BKN055,0.00,46.00,VWS V14.01,2013-10-24 21:35:00,
2013-10-24 16:40:00,43.8,30.0,30.40,NNW,347,5.0,6.0,58,0.00,,BKN055,0.00,49.00,VWS V14.01,2013-10-24 21:40:00,
2013-10-24 16:45:00,43.8,30.0,30.40,NW,320,0.0,6.0,58,0.00,,BKN055,0.00,98.00,VWS V14.01,2013-10-24 21:45:00,
2013-10-24 16:50:00,44.0,30.6,30.40,NW,320,1.0,4.0,59,0.00,,SCT075,0.00,93.00,VWS V14.01,2013-10-24 21:50:00,
2013-10-24 16:55:00,44.1,31.1,30.40,NNW,330,1.0,2.0,60,0.00,,SCT075,0.00,81.00,VWS V14.01,2013-10-24 21:55:00,
2013-10-24 17:00:00,44.1,30.7,30.40,NNW,330,3.0,5.0,59,0.00,,SCT075,0.00,77.00,VWS V14.01,2013-10-24 22:00:00,
2013-10-24 17:05:00,44.1,30.7,30.40,NW,311,3.0,5.0,59,0.00,,SCT075,0.00,67.00,VWS V14.01,2013-10-24 22:05:00,
2013-10-24 17:10:00,44.1,30.7,30.40,NW,307,0.0,1.0,59,0.00,,SCT075,0.00,72.00,VWS V14.01,2013-10-24 22:10:00,
2013-10-24 17:15:00,44.0,31.0,30.40,NW,307,0.0,0.0,60,0.00,,SCT075,0.00,58.00,VWS V14.01,2013-10-24 22:15:00,
2013-10-24 17:20:00,44.0,31.0,30.40,NW,309,3.0,3.0,60,0.00,,SCT075,0.00,44.00,VWS V14.01,2013-10-24 22:20:00,
2013-10-24 17:25:00,44.0,30.2,30.40,NW,305,3.0,6.0,58,0.00,,SCT075,0.00,26.00,VWS V14.01,2013-10-24 22:25:00,
2013-10-24 17:30:00,43.9,30.1,30.40,NW,320,2.0,5.0,58,0.00,,SCT075,0.00,21.00,VWS V14.01,2013-10-24 22:30:00,
2013-10-24 17:36:00,43.9,30.1,30.40,NW,322,9.0,10.0,58,0.00,,SCT075,0.00,21.00,VWS V14.01,2013-10-24 22:36:00,
2013-10-24 17:41:00,43.9,30.9,30.40,WNW,303,3.0,5.0,60,0.00,,SCT075,0.00,26.00,VWS V14.01,2013-10-24 22:41:00,
2013-10-24 17:46:00,43.7,31.1,30.40,West,278,0.0,4.0,61,0.00,,SCT075,0.00,30.00,VWS V14.01,2013-10-24 22:46:00,
2013-10-24 17:51:00,43.6,31.0,30.40,WNW,284,1.0,3.0,61,0.00,,SCT075,0.00,26.00,VWS V14.01,2013-10-24 22:51:00,
2013-10-24 17:56:00,43.3,31.2,30.40,WNW,291,1.0,1.0,62,0.00,,SCT075,0.00,19.00,VWS V14.01,2013-10-24 22:56:00,
2013-10-24 18:01:00,43.0,31.3,30.40,WNW,295,0.0,2.0,63,0.00,,SCT075,0.00,14.00,VWS V14.01,2013-10-24 23:01:00,
2013-10-24 18:06:00,42.8,31.5,30.40,WNW,295,0.0,1.0,64,0.00,,SCT075,0.00,9.00,VWS V14.01,2013-10-24 23:06:00,
2013-10-24 18:11:00,42.5,31.6,30.40,WNW,295,1.0,3.0,65,0.00,,SCT075,0.00,7.00,VWS V14.01,2013-10-24 23:11:00,
2013-10-24 18:16:00,42.2,31.7,30.40,WNW,295,1.0,1.0,66,0.00,,SCT075,0.00,0.00,VWS V14.01,2013-10-24 23:16:00,
2013-10-24 18:21:00,41.9,31.8,30.41,WNW,295,0.0,1.0,67,0.00,,SCT075,0.00,0.00,VWS V14.01,2013-10-24 23:21:00,
2013-10-24 18:26:00,41.7,31.9,30.41,WNW,295,0.0,0.0,68,0.00,,SCT075,0.00,0.00,VWS V14.01,2013-10-24 23:26:00,
2013-10-24 18:31:00,41.6,31.8,30.41,WNW,295,0.0,1.0,68,0.00,,SCT075,0.00,0.00,VWS V14.01,2013-10-24 23:31:00,
2013-10-24 18:36:00,41.2,31.5,30.41,WNW,295,0.0,0.0,68,0.00,,SCT075,0.00,0.00,VWS V14.01,2013-10-24 23:36:00,
2013-10-24 18:41:00,40.7,31.3,30.41,WNW,295,0.0,0.0,69,0.00,,SCT075,0.00,0.00,VWS V14.01,2013-10-24 23:41:00,
2013-10-24 18:46:00,40.4,31.4,30.41,WNW,295,0.0,0.0,70,0.00,,SCT075,0.00,0.00,VWS V14.01,2013-10-24 23:46:00,
2013-10-24 18:51:00,39.9,30.9,30.41,WNW,295,0.0,1.0,70,0.00,,BKN080,0.00,0.00,VWS V14.01,2013-10-24 23:51:00,
2013-10-24 18:56:00,39.3,30.7,30.41,WNW,295,0.0,0.0,71,0.00,,BKN080,0.00,0.00,VWS V14.01,2013-10-24 23:56:00,
2013-10-24 19:01:00,38.8,30.9,30.41,WNW,295,0.0,0.0,73,0.00,,BKN080,0.00,0.00,VWS V14.01,2013-10-25 00:01:00,
2013-10-24 19:06:00,38.5,31.0,30.41,WNW,295,0.0,0.0,74,0.00,,BKN080,0.00,0.00,VWS V14.01,2013-10-25 00:06:00,
2013-10-24 19:11:00,38.3,30.8,30.41,WNW,295,0.0,0.0,74,0.00,,SCT080,0.00,0.00,VWS V14.01,2013-10-25 00:11:00,
2013-10-24 19:16:00,38.0,30.5,30.41,WNW,295,0.0,0.0,74,0.00,,SCT080,0.00,0.00,VWS V14.01,2013-10-25 00:16:00,
2013-10-24 19:21:00,37.6,30.4,30.42,WNW,295,0.0,0.0,75,0.00,,SCT080,0.00,0.00,VWS V14.01,2013-10-25 00:21:00,
2013-10-24 19:26:00,37.2,30.4,30.42,WNW,295,0.0,0.0,76,0.00,,SCT080,0.00,0.00,VWS V14.01,2013-10-25 00:26:00,
2013-10-24 19:31:00,37.0,30.5,30.42,WNW,295,0.0,0.0,77,0.00,,SCT080,0.00,0.00,VWS V14.01,2013-10-25 00:31:00,
2013-10-24 19:36:00,36.9,30.4,30.42,WNW,295,0.0,0.0,77,0.00,,SCT080,0.00,0.00,VWS V14.01,2013-10-25 00:36:00,
2013-10-24 19:41:00,36.6,30.4,30.42,WNW,295,0.0,0.0,78,0.00,,SCT080,0.00,0.00,VWS V14.01,2013-10-25 00:41:00,
2013-10-24 19:46:00,36.3,30.1,30.42,WNW,295,0.0,0.0,78,0.00,,SCT080,0.00,0.00,VWS V14.01,2013-10-25 00:46:00,
2013-10-24 19:51:00,35.7,29.5,30.42,WNW,295,0.0,0.0,78,0.00,,CLR,0.00,0.00,VWS V14.01,2013-10-25 00:51:00,
2013-10-24 19:56:00,35.2,29.4,30.42,WNW,295,0.0,0.0,79,0.00,,CLR,0.00,0.00,VWS V14.01,2013-10-25 00:56:00,
2013-10-24 20:01:00,35.0,29.5,30.42,WNW,295,0.0,0.0,80,0.00,,CLR,0.00,0.00,VWS V14.01,2013-10-25 01:01:00,
2013-10-24 20:06:00,34.7,29.5,30.42,WNW,295,0.0,0.0,81,0.00,,CLR,0.00,0.00,VWS V14.01,2013-10-25 01:06:00,
2013-10-24 20:11:00,34.4,29.2,30.42,WNW,295,0.0,0.0,81,0.00,,CLR,0.00,0.00,VWS V14.01,2013-10-25 01:11:00,
2013-10-24 20:16:00,34.2,29.3,30.43,WNW,295,0.0,0.0,82,0.00,,CLR,0.00,0.00,VWS V14.01,2013-10-25 01:16:00,
2013-10-24 20:21:00,34.0,29.4,30.42,WNW,295,0.0,0.0,83,0.00,,CLR,0.00,0.00,VWS V14.01,2013-10-25 01:21:00,
2013-10-24 20:26:00,33.8,29.2,30.43,WNW,295,0.0,0.0,83,0.00,,CLR,0.00,0.00,VWS V14.01,2013-10-25 01:26:00,
2013-10-24 20:31:00,33.5,28.9,30.43,WNW,295,0.0,0.0,83,0.00,,CLR,0.00,0.00,VWS V14.01,2013-10-25 01:31:00,
2013-10-24 20:36:00,33.4,29.1,30.43,WNW,295,0.0,0.0,84,0.00,,CLR,0.00,0.00,VWS V14.01,2013-10-25 01:36:00,
2013-10-24 20:41:00,33.6,29.3,30.43,WNW,295,1.0,1.0,84,0.00,,CLR,0.00,0.00,VWS V14.01,2013-10-25 01:41:00,
2013-10-24 20:46:00,33.9,29.6,30.43,WNW,295,1.0,1.0,84,0.00,,CLR,0.00,0.00,VWS V14.01,2013-10-25 01:46:00,
2013-10-24 20:51:00,33.7,29.1,30.43,WNW,295,0.0,0.0,83,0.00,,CLR,0.00,0.00,VWS V14.01,2013-10-25 01:51:00,
2013-10-24 20:56:00,32.1,27.5,30.43,WNW,295,0.0,1.0,83,0.00,,CLR,0.00,0.00,VWS V14.01,2013-10-25 01:56:00,
2013-10-24 21:01:00,31.6,27.3,30.43,WNW,295,0.0,0.0,84,0.00,,CLR,0.00,0.00,VWS V14.01,2013-10-25 02:01:00,
2013-10-24 21:06:00,31.6,27.6,30.43,WNW,295,0.0,0.0,85,0.00,,CLR,0.00,0.00,VWS V14.01,2013-10-25 02:06:00,
2013-10-24 21:11:00,31.8,28.1,30.43,WNW,295,0.0,0.0,86,0.00,,CLR,0.00,0.00,VWS V14.01,2013-10-25 02:11:00,
2013-10-24 21:16:00,31.9,28.5,30.43,WNW,295,0.0,0.0,87,0.00,,CLR,0.00,0.00,VWS V14.01,2013-10-25 02:16:00,
2013-10-24 21:21:00,32.0,28.6,30.43,WNW,295,0.0,0.0,87,0.00,,CLR,0.00,0.00,VWS V14.01,2013-10-25 02:21:00,
2013-10-24 21:26:00,32.0,28.6,30.43,WNW,295,0.0,0.0,87,0.00,,CLR,0.00,0.00,VWS V14.01,2013-10-25 02:26:00,
2013-10-24 21:31:00,31.3,27.6,30.44,WNW,295,0.0,0.0,86,0.00,,CLR,0.00,0.00,VWS V14.01,2013-10-25 02:31:00,
2013-10-24 21:36:00,30.8,27.4,30.44,WNW,295,0.0,0.0,87,0.00,,CLR,0.00,0.00,VWS V14.01,2013-10-25 02:36:00,
2013-10-24 21:41:00,31.0,27.9,30.44,WNW,295,0.0,0.0,88,0.00,,CLR,0.00,0.00,VWS V14.01,2013-10-25 02:41:00,
2013-10-24 21:46:00,30.9,27.8,30.44,WNW,295,0.0,0.0,88,0.00,,CLR,0.00,0.00,VWS V14.01,2013-10-25 02:46:00,
2013-10-24 21:51:00,30.8,27.7,30.44,WNW,295,0.0,0.0,88,0.00,,CLR,0.00,0.00,VWS V14.01,2013-10-25 02:51:00,
2013-10-24 21:56:00,30.8,27.7,30.44,WNW,295,0.0,0.0,88,0.00,,CLR,0.00,0.00,VWS V14.01,2013-10-25 02:56:00,
2013-10-24 22:01:00,30.7,27.9,30.44,WNW,295,0.0,0.0,89,0.00,,CLR,0.00,0.00,VWS V14.01,2013-10-25 03:01:00,
2013-10-24 22:06:00,30.6,27.8,30.44,WNW,295,0.0,0.0,89,0.00,,CLR,0.00,0.00,VWS V14.01,2013-10-25 03:06:00,
2013-10-24 22:11:00,30.7,27.9,30.44,WNW,295,0.0,0.0,89,0.00,,CLR,0.00,0.00,VWS V14.01,2013-10-25 03:11:00,
2013-10-24 22:16:00,31.1,28.2,30.45,WNW,295,0.0,0.0,89,0.00,,CLR,0.00,0.00,VWS V14.01,2013-10-25 03:16:00,
2013-10-24 22:21:00,31.2,28.3,30.45,WNW,295,0.0,0.0,89,0.00,,CLR,0.00,0.00,VWS V14.01,2013-10-25 03:21:00,
2013-10-24 22:26:00,31.1,28.2,30.45,WNW,295,0.0,0.0,89,0.00,,CLR,0.00,0.00,VWS V14.01,2013-10-25 03:26:00,
2013-10-24 22:32:00,31.1,28.2,30.45,WNW,295,0.0,0.0,89,0.00,,CLR,0.00,0.00,VWS V14.01,2013-10-25 03:32:00,
2013-10-24 22:37:00,31.0,28.1,30.45,WNW,295,0.0,0.0,89,0.00,,CLR,0.00,0.00,VWS V14.01,2013-10-25 03:37:00,
2013-10-24 22:42:00,30.9,28.3,30.45,WNW,295,0.0,0.0,90,0.00,,CLR,0.00,0.00,VWS V14.01,2013-10-25 03:42:00,
2013-10-24 22:47:00,30.9,28.3,30.45,WNW,295,0.0,0.0,90,0.00,,CLR,0.00,0.00,VWS V14.01,2013-10-25 03:47:00,
2013-10-24 22:52:00,31.0,28.4,30.45,WNW,295,0.0,0.0,90,0.00,,SCT060,0.00,0.00,VWS V14.01,2013-10-25 03:52:00,
2013-10-24 22:57:00,31.2,28.6,30.45,WNW,295,0.0,0.0,90,0.00,,SCT060,0.00,0.00,VWS V14.01,2013-10-25 03:57:00,
2013-10-24 23:01:00,31.5,28.9,30.45,WNW,295,0.0,0.0,90,0.00,,SCT060,0.00,0.00,VWS V14.01,2013-10-25 04:01:00,
2013-10-24 23:02:00,31.6,29.0,30.45,WNW,295,0.0,0.0,90,0.00,,SCT060,0.00,0.00,VWS V14.01,2013-10-25 04:02:00,
2013-10-24 23:07:00,31.8,29.5,30.45,WNW,295,0.0,0.0,91,0.00,,SCT060,0.00,0.00,VWS V14.01,2013-10-25 04:07:00,
2013-10-24 23:12:00,31.9,29.3,30.45,WNW,295,0.0,0.0,90,0.00,,SCT060,0.00,0.00,VWS V14.01,2013-10-25 04:12:00,
2013-10-24 23:17:00,32.0,29.4,30.45,WNW,295,0.0,0.0,90,0.00,,SCT060,0.00,0.00,VWS V14.01,2013-10-25 04:17:00,
2013-10-24 23:22:00,32.1,29.5,30.45,WNW,295,0.0,0.0,90,0.00,,SCT060,0.00,0.00,VWS V14.01,2013-10-25 04:22:00,
2013-10-24 23:27:00,32.1,29.5,30.45,WNW,295,0.0,0.0,90,0.00,,SCT060,0.00,0.00,VWS V14.01,2013-10-25 04:27:00,
2013-10-24 23:32:00,32.2,29.6,30.45,WNW,295,0.0,0.0,90,0.00,,SCT060,0.00,0.00,VWS V14.01,2013-10-25 04:32:00,
2013-10-24 23:37:00,32.2,29.6,30.45,WNW,295,0.0,0.0,90,0.00,,SCT060,0.00,0.00,VWS V14.01,2013-10-25 04:37:00,
2013-10-24 23:42:00,32.1,29.5,30.45,WNW,295,0.0,0.0,90,0.00,,SCT060,0.00,0.00,VWS V14.01,2013-10-25 04:42:00,
2013-10-24 23:47:00,32.1,29.5,30.45,WNW,295,0.0,0.0,90,0.00,,SCT060,0.00,0.00,VWS V14.01,2013-10-25 04:47:00,
2013-10-24 23:52:00,32.1,29.5,30.46,WNW,295,0.0,0.0,90,0.00,,CLR,0.00,0.00,VWS V14.01,2013-10-25 04:52:00,
2013-10-24 23:57:00,32.0,29.4,30.46,WNW,295,0.0,0.0,90,0.00,,CLR,0.00,0.00,VWS V14.01,2013-10-25 04:57:00,